Time;durP1;ratioP1;P1;durP2;ratioP2;P2;SDS_P1;SDS_P2;PMS_P1;PMS_P2;Temp;Humidity;BMP_temperature;BMP_pressure;BME280_temperature;BME280_humidity;BME280_pressure;Samples;Min_cycle;Max_cycle;Signal;HPM_P1;HPM_P2
2021/10/23 00:02:14;;;;;;;;;;;20.10;58.40;;;;;;5014492;28;19929;-48
2021/10/23 00:04:41;;;;;;;;;;;20.10;58.40;;;;;;5014658;28;19932;-48
2021/10/23 00:07:08;;;;;;;;;;;20.10;58.40;;;;;;5015109;28;20377;-49
2021/10/23 00:09:36;;;;;;;;;;;20.10;58.40;;;;;;5015345;28;19980;-49
2021/10/23 00:12:04;;;;;;;;;;;20.10;58.40;;;;;;5015525;28;19972;-48
2021/10/23 00:14:31;;;;;;;;;;;20.20;58.50;;;;;;5009685;28;19926;-50
2021/10/23 00:16:58;;;;;;;;;;;20.10;58.50;;;;;;5002147;28;19976;-50
2021/10/23 00:19:25;;;;;;;;;;;20.10;58.40;;;;;;4999000;28;19926;-53
2021/10/23 00:21:52;;;;;;;;;;;20.10;58.40;;;;;;5002060;28;19925;-52
2021/10/23 00:24:19;;;;;;;;;;;20.10;58.40;;;;;;5011983;28;19976;-53
2021/10/23 00:26:46;;;;;;;;;;;20.10;58.40;;;;;;4999710;28;19932;-51
2021/10/23 00:29:13;;;;;;;;;;;20.10;58.40;;;;;;5014613;28;19925;-51
2021/10/23 00:31:40;;;;;;;;;;;20.10;58.40;;;;;;4998279;28;20049;-50
2021/10/23 00:34:07;;;;;;;;;;;20.10;58.40;;;;;;5014950;28;19929;-47
2021/10/23 00:36:34;;;;;;;;;;;20.10;58.40;;;;;;4997481;28;19970;-48
2021/10/23 00:39:01;;;;;;;;;;;20.10;58.40;;;;;;4997899;28;19926;-50
2021/10/23 00:41:28;;;;;;;;;;;20.10;58.40;;;;;;5014870;28;20408;-49
2021/10/23 00:43:55;;;;;;;;;;;20.10;58.40;;;;;;5014836;28;20356;-52
2021/10/23 00:46:22;;;;;;;;;;;20.10;58.40;;;;;;5000084;28;19926;-50
2021/10/23 00:48:49;;;;;;;;;;;20.10;58.40;;;;;;5030125;28;19992;-49
2021/10/23 00:51:16;;;;;;;;;;;20.10;58.40;;;;;;5009747;28;20382;-49
2021/10/23 00:53:45;;;;;;;;;;;20.10;58.40;;;;;;5013169;28;19961;-51
2021/10/23 00:56:12;;;;;;;;;;;20.10;58.40;;;;;;5014332;28;20373;-50
2021/10/23 00:58:39;;;;;;;;;;;20.10;58.40;;;;;;5013499;28;19929;-48
2021/10/23 01:01:06;;;;;;;;;;;20.10;58.40;;;;;;5014221;28;19956;-50
2021/10/23 01:03:34;;;;;;;;;;;20.10;58.40;;;;;;5014152;28;20492;-51
2021/10/23 01:06:01;;;;;;;;;;;20.10;58.40;;;;;;5014089;28;20382;-54
2021/10/23 01:08:28;;;;;;;;;;;20.10;58.40;;;;;;5014101;28;19929;-50
2021/10/23 01:10:55;;;;;;;;;;;20.10;58.40;;;;;;5014490;28;19945;-49
2021/10/23 01:13:22;;;;;;;;;;;20.10;58.40;;;;;;5009650;28;20000;-50
2021/10/23 01:15:49;;;;;;;;;;;20.10;58.40;;;;;;5001147;28;19926;-52
2021/10/23 01:18:16;;;;;;;;;;;20.10;58.40;;;;;;5011805;28;19925;-49
2021/10/23 01:20:43;;;;;;;;;;;20.10;58.40;;;;;;4997717;28;19925;-50
2021/10/23 01:23:10;;;;;;;;;;;20.10;58.40;;;;;;4998291;28;19925;-48
2021/10/23 01:25:37;;;;;;;;;;;20.10;58.40;;;;;;5013871;28;19930;-52
2021/10/23 01:28:05;;;;;;;;;;;20.10;58.40;;;;;;4996498;28;19925;-47
2021/10/23 01:30:33;;;;;;;;;;;20.10;58.40;;;;;;5012813;28;19925;-49
2021/10/23 01:33:00;;;;;;;;;;;20.10;58.40;;;;;;4996632;28;19926;-47
2021/10/23 01:35:28;;;;;;;;;;;20.10;58.40;;;;;;5013870;28;19925;-50
2021/10/23 01:37:55;;;;;;;;;;;20.10;58.40;;;;;;4997635;28;20138;-51
2021/10/23 01:40:25;;;;;;;;;;;20.10;58.40;;;;;;5012067;28;19932;-48
2021/10/23 01:42:52;;;;;;;;;;;20.10;58.40;;;;;;4999343;28;20339;-47
2021/10/23 01:45:19;;;;;;;;;;;20.10;58.40;;;;;;5011252;28;19925;-47
2021/10/23 01:47:46;;;;;;;;;;;20.10;58.40;;;;;;5012585;28;19929;-48
2021/10/23 01:50:13;;;;;;;;;;;20.10;58.40;;;;;;5013375;28;19975;-47
2021/10/23 01:52:40;;;;;;;;;;;20.10;58.40;;;;;;5013643;28;20027;-47
2021/10/23 01:55:11;;;;;;;;;;;20.10;58.40;;;;;;5013235;28;19925;-50
2021/10/23 01:57:39;;;;;;;;;;;20.10;58.40;;;;;;5013440;28;20380;-52
2021/10/23 02:00:07;;;;;;;;;;;20.10;58.40;;;;;;5014148;28;19925;-48
2021/10/23 02:02:35;;;;;;;;;;;20.10;58.40;;;;;;5005664;28;19925;-49
2021/10/23 02:05:02;;;;;;;;;;;20.10;58.40;;;;;;5004014;28;19925;-48
2021/10/23 02:07:29;;;;;;;;;;;20.10;58.40;;;;;;5007040;28;20373;-51
2021/10/23 02:09:57;;;;;;;;;;;20.10;58.40;;;;;;4996971;28;19953;-52
2021/10/23 02:12:24;;;;;;;;;;;20.10;58.40;;;;;;5001152;28;20016;-53
2021/10/23 02:14:51;;;;;;;;;;;20.10;58.40;;;;;;5012069;28;19972;-53
2021/10/23 02:17:18;;;;;;;;;;;20.10;58.40;;;;;;5010424;28;19980;-52
2021/10/23 02:19:45;;;;;;;;;;;20.10;58.40;;;;;;4997151;28;19925;-51
2021/10/23 02:22:12;;;;;;;;;;;20.10;58.50;;;;;;4997234;28;19979;-51
2021/10/23 02:24:39;;;;;;;;;;;20.10;58.40;;;;;;5012996;28;20364;-50
2021/10/23 02:27:06;;;;;;;;;;;20.10;58.40;;;;;;5012938;28;19925;-51
2021/10/23 02:29:33;;;;;;;;;;;20.10;58.40;;;;;;4995951;28;20294;-48
2021/10/23 02:32:00;;;;;;;;;;;20.10;58.40;;;;;;4994759;28;19925;-48
2021/10/23 02:34:27;;;;;;;;;;;20.10;58.40;;;;;;4995424;28;19959;-51
2021/10/23 02:36:54;;;;;;;;;;;20.10;58.40;;;;;;4996871;28;19953;-48
2021/10/23 02:39:21;;;;;;;;;;;20.10;58.40;;;;;;5010063;28;20373;-49
2021/10/23 02:41:48;;;;;;;;;;;20.10;58.40;;;;;;5012651;28;19979;-50
2021/10/23 02:44:15;;;;;;;;;;;20.10;58.40;;;;;;5012867;28;19932;-48
2021/10/23 02:46:42;;;;;;;;;;;20.10;58.30;;;;;;5011541;28;20332;-49
2021/10/23 02:49:09;;;;;;;;;;;20.10;58.30;;;;;;5011411;28;19933;-50
2021/10/23 02:51:36;;;;;;;;;;;20.10;58.30;;;;;;5012545;28;20266;-48
2021/10/23 02:54:03;;;;;;;;;;;20.10;58.30;;;;;;5003446;28;19926;-53
2021/10/23 02:56:30;;;;;;;;;;;20.10;58.40;;;;;;4996808;28;20341;-51
2021/10/23 02:58:57;;;;;;;;;;;20.10;58.30;;;;;;4996656;28;20016;-53
2021/10/23 03:01:24;;;;;;;;;;;20.10;58.40;;;;;;4996431;28;19976;-49
2021/10/23 03:03:51;;;;;;;;;;;20.10;58.40;;;;;;5001595;28;19925;-53
2021/10/23 03:06:19;;;;;;;;;;;20.10;58.30;;;;;;5012191;28;19929;-50
2021/10/23 03:08:46;;;;;;;;;;;20.10;58.30;;;;;;5008892;28;19933;-49
2021/10/23 03:11:13;;;;;;;;;;;20.10;58.30;;;;;;4999009;28;19925;-54
2021/10/23 03:13:41;;;;;;;;;;;20.10;58.30;;;;;;5010866;28;19925;-53
2021/10/23 03:16:08;;;;;;;;;;;20.10;58.30;;;;;;4996784;28;19929;-53
2021/10/23 03:18:36;;;;;;;;;;;20.10;58.30;;;;;;4995989;28;19932;-52
2021/10/23 03:21:03;;;;;;;;;;;20.10;58.30;;;;;;4995454;28;19980;-51
2021/10/23 03:23:30;;;;;;;;;;;20.10;58.30;;;;;;5026413;28;19929;-49
2021/10/23 03:25:57;;;;;;;;;;;20.10;58.30;;;;;;5012231;28;19979;-49
2021/10/23 03:28:24;;;;;;;;;;;20.10;58.30;;;;;;5012585;28;20003;-49
2021/10/23 03:30:51;;;;;;;;;;;20.10;58.30;;;;;;5012331;28;19972;-51
2021/10/23 03:33:18;;;;;;;;;;;20.10;58.30;;;;;;4997135;28;20390;-53
2021/10/23 03:35:45;;;;;;;;;;;20.10;58.30;;;;;;5010071;28;19968;-52
2021/10/23 03:38:12;;;;;;;;;;;20.10;58.30;;;;;;5010960;28;19953;-48
2021/10/23 03:40:39;;;;;;;;;;;20.10;58.30;;;;;;5012056;28;20029;-53
2021/10/23 03:43:06;;;;;;;;;;;20.10;58.30;;;;;;5010821;28;19976;-51
2021/10/23 03:45:33;;;;;;;;;;;20.10;58.30;;;;;;5011959;28;20385;-51
2021/10/23 03:48:00;;;;;;;;;;;20.10;58.30;;;;;;5012064;28;19926;-54
2021/10/23 03:50:26;;;;;;;;;;;20.10;58.30;;;;;;5011098;28;19925;-52
2021/10/23 03:52:54;;;;;;;;;;;20.10;58.30;;;;;;5011726;28;20285;-49
2021/10/23 03:55:21;;;;;;;;;;;20.10;58.20;;;;;;5010800;28;19925;-49
2021/10/23 03:57:48;;;;;;;;;;;20.10;58.20;;;;;;5011693;28;19976;-53
2021/10/23 04:00:15;;;;;;;;;;;20.10;58.20;;;;;;5012048;28;19929;-51
2021/10/23 04:02:42;;;;;;;;;;;20.10;58.20;;;;;;5012204;28;20000;-51
2021/10/23 04:05:09;;;;;;;;;;;20.10;58.30;;;;;;5014990;28;19933;-51
2021/10/23 04:07:36;;;;;;;;;;;20.10;58.20;;;;;;5015170;28;20370;-51
2021/10/23 04:10:04;;;;;;;;;;;20.10;58.20;;;;;;5014365;28;20370;-47
2021/10/23 04:12:31;;;;;;;;;;;20.10;58.20;;;;;;5015496;28;19972;-50
2021/10/23 04:15:00;;;;;;;;;;;20.10;58.20;;;;;;5015520;28;19925;-48
2021/10/23 04:17:27;;;;;;;;;;;20.10;58.20;;;;;;5015355;28;20290;-49
2021/10/23 04:19:55;;;;;;;;;;;20.10;58.20;;;;;;5015187;28;19925;-48
2021/10/23 04:22:22;;;;;;;;;;;20.10;58.20;;;;;;4996787;28;19926;-49
2021/10/23 04:24:50;;;;;;;;;;;20.10;58.20;;;;;;5015229;28;20098;-49
2021/10/23 04:27:18;;;;;;;;;;;20.10;58.10;;;;;;5013653;28;19933;-47
2021/10/23 04:29:46;;;;;;;;;;;20.10;58.10;;;;;;5000130;28;19925;-48
2021/10/23 04:32:13;;;;;;;;;;;20.10;58.10;;;;;;5012899;28;19968;-49
2021/10/23 04:34:40;;;;;;;;;;;20.10;58.10;;;;;;5015165;28;20301;-51
2021/10/23 04:37:07;;;;;;;;;;;20.10;58.70;;;;;;5015017;28;19926;-48
2021/10/23 04:39:34;;;;;;;;;;;20.10;58.20;;;;;;5003691;28;20333;-50
2021/10/23 04:42:01;;;;;;;;;;;20.10;58.10;;;;;;5008874;28;19979;-51
2021/10/23 04:44:28;;;;;;;;;;;20.10;58.10;;;;;;5013585;28;19925;-51
2021/10/23 04:46:54;;;;;;;;;;;20.10;58.10;;;;;;5014867;28;19967;-50
2021/10/23 04:49:21;;;;;;;;;;;20.10;58.10;;;;;;5007765;28;19925;-48
2021/10/23 04:51:48;;;;;;;;;;;20.10;58.10;;;;;;5003848;28;20009;-49
2021/10/23 04:54:16;;;;;;;;;;;20.10;58.10;;;;;;5014336;28;19930;-47
2021/10/23 04:56:45;;;;;;;;;;;20.10;58.10;;;;;;5013838;28;20136;-49
2021/10/23 04:59:12;;;;;;;;;;;20.10;58.10;;;;;;5013645;28;20341;-48
2021/10/23 05:01:39;;;;;;;;;;;20.10;58.10;;;;;;5014231;28;19967;-51
2021/10/23 05:04:06;;;;;;;;;;;20.10;58.10;;;;;;5012185;28;19979;-50
2021/10/23 05:06:33;;;;;;;;;;;20.10;58.10;;;;;;4998069;28;19926;-47
2021/10/23 05:09:00;;;;;;;;;;;20.10;58.10;;;;;;4998091;28;19929;-48
2021/10/23 05:11:27;;;;;;;;;;;20.10;58.10;;;;;;4997274;28;19964;-49
2021/10/23 05:13:54;;;;;;;;;;;20.10;58.10;;;;;;5014238;28;19925;-47
2021/10/23 05:16:20;;;;;;;;;;;20.10;58.10;;;;;;5002491;28;19933;-48
2021/10/23 05:18:50;;;;;;;;;;;20.10;58.00;;;;;;5014286;28;20321;-47
2021/10/23 05:21:18;;;;;;;;;;;20.10;58.00;;;;;;4996709;28;20374;-48
2021/10/23 05:23:46;;;;;;;;;;;20.10;58.00;;;;;;5012573;28;20437;-47
2021/10/23 05:26:13;;;;;;;;;;;20.10;58.00;;;;;;5012547;28;19925;-49
2021/10/23 05:28:40;;;;;;;;;;;20.10;58.00;;;;;;5013797;28;19968;-53
2021/10/23 05:31:07;;;;;;;;;;;20.10;58.00;;;;;;5013687;28;20457;-49
2021/10/23 05:33:34;;;;;;;;;;;20.10;58.00;;;;;;5012841;28;19925;-47
2021/10/23 05:36:01;;;;;;;;;;;20.10;58.00;;;;;;5013659;28;19925;-49
2021/10/23 05:38:28;;;;;;;;;;;20.10;58.00;;;;;;5012582;28;19926;-48
2021/10/23 05:40:56;;;;;;;;;;;20.10;58.00;;;;;;5013840;28;19925;-50
2021/10/23 05:43:23;;;;;;;;;;;20.10;58.00;;;;;;5013812;28;20341;-48
2021/10/23 05:45:50;;;;;;;;;;;20.10;57.90;;;;;;5014133;28;19929;-50
2021/10/23 05:48:18;;;;;;;;;;;20.10;57.90;;;;;;5013327;28;19925;-48
2021/10/23 05:50:45;;;;;;;;;;;20.10;57.90;;;;;;5013949;28;19972;-48
2021/10/23 05:53:12;;;;;;;;;;;20.10;58.00;;;;;;5008564;28;20017;-49
2021/10/23 05:55:39;;;;;;;;;;;20.10;57.90;;;;;;4997014;28;19926;-49
2021/10/23 05:58:07;;;;;;;;;;;20.10;57.90;;;;;;4997354;28;19976;-47
2021/10/23 06:00:36;;;;;;;;;;;20.10;57.90;;;;;;4997350;28;19926;-47
2021/10/23 06:03:03;;;;;;;;;;;20.10;57.90;;;;;;4998480;28;20288;-47
2021/10/23 06:05:31;;;;;;;;;;;20.20;58.00;;;;;;5012932;28;19956;-48
2021/10/23 06:07:59;;;;;;;;;;;20.20;57.90;;;;;;4996747;28;20283;-47
2021/10/23 06:10:26;;;;;;;;;;;20.20;57.90;;;;;;5013012;28;19925;-48
2021/10/23 06:12:52;;;;;;;;;;;20.20;57.90;;;;;;5013581;28;19926;-49
2021/10/23 06:15:19;;;;;;;;;;;20.20;57.90;;;;;;5013218;28;19929;-49
2021/10/23 06:17:46;;;;;;;;;;;20.20;57.90;;;;;;5011843;28;19933;-48
2021/10/23 06:20:15;;;;;;;;;;;20.20;57.90;;;;;;5011951;28;19967;-47
2021/10/23 06:22:53;;;;;;;;;;;20.20;57.90;;;;;;5011924;28;19973;-47
2021/10/23 06:25:20;;;;;;;;;;;20.20;57.90;;;;;;5012964;28;19929;-47
2021/10/23 06:27:47;;;;;;;;;;;20.20;57.90;;;;;;5011338;28;19929;-47
2021/10/23 06:30:15;;;;;;;;;;;20.20;57.90;;;;;;5011561;28;19988;-49
2021/10/23 06:32:45;;;;;;;;;;;20.20;57.90;;;;;;5012676;28;19929;-48
2021/10/23 06:35:13;;;;;;;;;;;20.20;57.80;;;;;;5012740;28;19926;-49
2021/10/23 06:37:39;;;;;;;;;;;20.20;57.80;;;;;;5012799;28;19925;-48
2021/10/23 06:40:07;;;;;;;;;;;20.20;57.80;;;;;;5012712;28;19971;-49
2021/10/23 06:42:34;;;;;;;;;;;20.20;57.80;;;;;;5003779;28;20346;-47
2021/10/23 06:45:03;;;;;;;;;;;20.20;57.70;;;;;;4996667;28;19926;-49
2021/10/23 06:47:30;;;;;;;;;;;20.20;57.70;;;;;;4996497;28;19980;-48
2021/10/23 06:49:58;;;;;;;;;;;20.20;57.70;;;;;;4996692;28;19980;-50
2021/10/23 06:52:25;;;;;;;;;;;20.20;57.70;;;;;;4996635;28;19926;-52
2021/10/23 06:54:52;;;;;;;;;;;20.30;57.80;;;;;;5001612;28;19984;-54
2021/10/23 06:57:19;;;;;;;;;;;20.30;57.70;;;;;;5011653;28;19926;-54
2021/10/23 06:59:55;;;;;;;;;;;20.30;57.70;;;;;;5012788;28;19925;-52
2021/10/23 07:02:22;;;;;;;;;;;20.30;57.70;;;;;;5007586;28;19972;-51
2021/10/23 07:04:49;;;;;;;;;;;20.30;57.60;;;;;;4996154;28;19934;-51
2021/10/23 07:07:16;;;;;;;;;;;20.30;57.70;;;;;;4998498;28;19979;-49
2021/10/23 07:09:43;;;;;;;;;;;20.30;57.70;;;;;;5027503;28;19925;-52
2021/10/23 07:12:10;;;;;;;;;;;20.30;57.60;;;;;;5012370;28;19953;-51
2021/10/23 07:14:37;;;;;;;;;;;20.30;57.60;;;;;;5012591;28;19930;-50
2021/10/23 07:17:04;;;;;;;;;;;20.30;57.70;;;;;;5004610;28;19930;-49
2021/10/23 07:19:31;;;;;;;;;;;20.30;57.60;;;;;;5012291;28;19929;-52
2021/10/23 07:21:58;;;;;;;;;;;20.30;57.60;;;;;;5011615;28;19973;-53
2021/10/23 07:24:25;;;;;;;;;;;20.30;57.60;;;;;;5012549;28;19926;-52
2021/10/23 07:26:52;;;;;;;;;;;20.30;57.60;;;;;;5010920;28;20431;-50
2021/10/23 07:29:20;;;;;;;;;;;20.30;57.60;;;;;;4998158;28;20380;-50
2021/10/23 07:31:47;;;;;;;;;;;20.30;57.60;;;;;;4996278;28;19930;-49
2021/10/23 07:34:14;;;;;;;;;;;20.30;57.60;;;;;;4996286;28;19976;-51
2021/10/23 07:36:41;;;;;;;;;;;20.30;57.50;;;;;;4996030;28;20382;-49
2021/10/23 07:39:08;;;;;;;;;;;20.30;57.50;;;;;;5008883;28;19995;-52
2021/10/23 07:41:35;;;;;;;;;;;20.30;58.10;;;;;;5015884;28;19925;-53
2021/10/23 07:44:03;;;;;;;;;;;20.30;57.50;;;;;;5007542;28;19933;-51
2021/10/23 07:46:30;;;;;;;;;;;20.30;57.50;;;;;;5007494;28;19929;-50
2021/10/23 07:48:57;;;;;;;;;;;20.30;57.40;;;;;;5015671;28;19972;-53
2021/10/23 07:51:24;;;;;;;;;;;20.30;57.40;;;;;;5009862;28;19933;-51
2021/10/23 07:53:51;;;;;;;;;;;20.40;57.50;;;;;;5004292;28;19980;-49
2021/10/23 07:56:18;;;;;;;;;;;20.40;57.50;;;;;;5015793;28;20274;-52
2021/10/23 07:58:44;;;;;;;;;;;20.40;57.50;;;;;;5012690;28;19934;-47
2021/10/23 08:01:13;;;;;;;;;;;20.40;57.40;;;;;;4999514;28;19925;-48
2021/10/23 08:03:40;;;;;;;;;;;20.30;57.40;;;;;;5001296;28;19960;-51
2021/10/23 08:06:07;;;;;;;;;;;20.40;57.40;;;;;;4999663;28;20298;-52
2021/10/23 08:08:35;;;;;;;;;;;20.40;57.40;;;;;;4999069;28;19983;-49
2021/10/23 08:11:02;;;;;;;;;;;20.40;57.40;;;;;;5014177;28;19932;-49
2021/10/23 08:13:29;;;;;;;;;;;20.40;57.40;;;;;;5015759;28;20505;-49
2021/10/23 08:15:57;;;;;;;;;;;20.40;57.40;;;;;;5000594;28;19926;-50
2021/10/23 08:18:24;;;;;;;;;;;20.40;57.30;;;;;;5015190;28;19931;-51
2021/10/23 08:20:51;;;;;;;;;;;20.40;57.30;;;;;;4999740;28;20012;-52
2021/10/23 08:23:18;;;;;;;;;;;20.40;57.20;;;;;;4998972;28;20378;-51
2021/10/23 08:25:45;;;;;;;;;;;20.40;57.20;;;;;;4998782;28;19925;-50
2021/10/23 08:28:12;;;;;;;;;;;20.50;57.30;;;;;;5012194;28;19965;-51
2021/10/23 08:30:40;;;;;;;;;;;20.40;57.20;;;;;;5003267;28;19972;-50
2021/10/23 08:33:07;;;;;;;;;;;20.40;57.20;;;;;;4998839;28;20382;-52
2021/10/23 08:35:34;;;;;;;;;;;20.40;57.20;;;;;;4999605;28;19934;-54
2021/10/23 08:38:01;;;;;;;;;;;20.40;57.20;;;;;;5008384;28;19992;-52
2021/10/23 08:40:29;;;;;;;;;;;20.50;57.20;;;;;;5014683;28;19960;-53
2021/10/23 08:42:56;;;;;;;;;;;20.50;57.20;;;;;;5014786;28;19925;-51
2021/10/23 08:45:23;;;;;;;;;;;20.50;57.10;;;;;;5014984;28;19959;-49
2021/10/23 08:47:50;;;;;;;;;;;20.50;57.10;;;;;;5009132;28;19933;-47
2021/10/23 08:50:18;;;;;;;;;;;20.50;57.00;;;;;;5001637;28;20452;-50
2021/10/23 08:52:46;;;;;;;;;;;20.50;57.00;;;;;;5010715;28;19926;-53
2021/10/23 08:55:14;;;;;;;;;;;20.60;57.00;;;;;;4998167;28;19975;-49
2021/10/23 08:57:42;;;;;;;;;;;20.60;57.00;;;;;;4999690;28;19972;-47
2021/10/23 09:00:09;;;;;;;;;;;20.60;57.00;;;;;;5013501;28;19930;-47
2021/10/23 09:02:36;;;;;;;;;;;20.60;57.00;;;;;;5013294;28;20334;-50
2021/10/23 09:05:03;;;;;;;;;;;20.60;57.00;;;;;;5012929;28;20004;-46
2021/10/23 09:07:32;;;;;;;;;;;20.60;57.00;;;;;;5014513;28;19929;-50
2021/10/23 09:10:03;;;;;;;;;;;20.60;56.90;;;;;;5027943;28;19926;-48
2021/10/23 09:12:32;;;;;;;;;;;20.60;56.90;;;;;;5014297;28;20126;-47
2021/10/23 09:15:02;;;;;;;;;;;20.60;56.90;;;;;;4996379;28;19925;-47
2021/10/23 09:17:29;;;;;;;;;;;20.60;56.90;;;;;;5012697;28;19949;-50
2021/10/23 09:19:57;;;;;;;;;;;20.60;56.80;;;;;;5014321;28;19925;-48
2021/10/23 09:22:24;;;;;;;;;;;20.60;56.80;;;;;;5014237;28;19926;-50
2021/10/23 09:25:10;;;;;;;;;;;20.60;56.90;;;;;;4999499;28;19926;-49
2021/10/23 09:27:48;;;;;;;;;;;20.60;56.80;;;;;;5013724;28;19936;-49
2021/10/23 09:30:19;;;;;;;;;;;20.60;56.80;;;;;;4997483;28;20417;-48
2021/10/23 09:32:53;;;;;;;;;;;20.70;56.80;;;;;;5014406;28;19926;-48
2021/10/23 09:35:22;;;;;;;;;;;20.70;56.80;;;;;;4997699;28;19954;-49
2021/10/23 09:37:53;;;;;;;;;;;20.70;56.80;;;;;;4997634;28;20045;-50
2021/10/23 09:40:20;;;;;;;;;;;20.70;56.80;;;;;;5012476;28;19980;-50
2021/10/23 09:43:03;;;;;;;;;;;20.70;56.60;;;;;;4999630;28;19930;-54
2021/10/23 09:45:30;;;;;;;;;;;20.70;56.60;;;;;;4997737;28;20279;-47
2021/10/23 09:48:07;;;;;;;;;;;20.80;56.70;;;;;;5010892;28;19929;-48
2021/10/23 09:50:34;;;;;;;;;;;20.70;56.50;;;;;;5013753;28;19926;-54
2021/10/23 09:53:08;;;;;;;;;;;20.70;56.60;;;;;;5013278;28;20016;-52
2021/10/23 09:55:35;;;;;;;;;;;20.70;56.50;;;;;;5013142;28;19979;-50
2021/10/23 09:58:12;;;;;;;;;;;20.80;56.60;;;;;;5012140;28;19932;-52
2021/10/23 10:00:46;;;;;;;;;;;20.80;56.60;;;;;;5012987;28;20016;-52
2021/10/23 10:03:14;;;;;;;;;;;20.80;56.50;;;;;;5010698;28;19973;-49
2021/10/23 10:05:42;;;;;;;;;;;20.80;56.60;;;;;;5000743;28;19932;-50
2021/10/23 10:08:13;;;;;;;;;;;20.70;56.50;;;;;;5008911;28;19975;-49
2021/10/23 10:10:42;;;;;;;;;;;20.80;56.60;;;;;;5013523;28;19926;-48
2021/10/23 10:13:10;;;;;;;;;;;20.80;56.60;;;;;;5002524;28;20020;-51
2021/10/23 10:15:38;;;;;;;;;;;20.70;56.60;;;;;;5006950;28;19972;-54
2021/10/23 10:18:05;;;;;;;;;;;20.70;56.60;;;;;;5012719;28;20032;-53
2021/10/23 10:20:33;;;;;;;;;;;20.70;56.60;;;;;;5012855;28;19929;-52
2021/10/23 10:23:00;;;;;;;;;;;20.70;56.60;;;;;;5011919;28;19925;-53
2021/10/23 10:25:27;;;;;;;;;;;20.70;56.60;;;;;;5043564;28;19925;-55
2021/10/23 10:27:55;;;;;;;;;;;20.70;56.70;;;;;;5013446;28;19961;-48
2021/10/23 10:30:35;;;;;;;;;;;20.70;56.70;;;;;;5011586;28;20390;-49
2021/10/23 10:33:43;;;;;;;;;;;20.70;56.70;;;;;;5011671;28;20484;-52
2021/10/23 10:36:33;;;;;;;;;;;20.70;56.70;;;;;;4971340;28;19926;-52
2021/10/23 10:39:39;;;;;;;;;;;20.70;56.70;;;;;;4971597;28;19962;-48
2021/10/23 10:45:22;;;;;;;;;;;20.70;56.70;;;;;;4955373;28;19926;-49
2021/10/23 10:48:08;;;;;;;;;;;20.70;56.70;;;;;;4971413;28;19933;-52
2021/10/23 10:50:35;;;;;;;;;;;20.70;56.70;;;;;;4971315;28;19926;-53
2021/10/23 10:53:15;;;;;;;;;;;20.70;56.70;;;;;;4971069;28;20029;-52
2021/10/23 10:55:43;;;;;;;;;;;20.70;56.80;;;;;;4971290;28;20338;-55
2021/10/23 10:58:11;;;;;;;;;;;20.60;56.70;;;;;;4971234;28;19926;-47
2021/10/23 11:00:51;;;;;;;;;;;20.70;56.80;;;;;;4971121;28;19930;-51
2021/10/23 11:03:37;;;;;;;;;;;20.70;56.80;;;;;;4971535;28;20293;-50
2021/10/23 11:06:22;;;;;;;;;;;20.70;56.70;;;;;;4971275;28;19930;-49
2021/10/23 11:09:09;;;;;;;;;;;20.70;56.60;;;;;;4970967;28;19959;-52
2021/10/23 11:11:43;;;;;;;;;;;20.70;56.60;;;;;;4983412;28;19926;-50
2021/10/23 11:14:10;;;;;;;;;;;20.80;56.60;;;;;;5004594;28;19929;-51
2021/10/23 11:16:38;;;;;;;;;;;20.80;56.50;;;;;;5015150;28;19976;-49
2021/10/23 11:19:05;;;;;;;;;;;20.80;56.40;;;;;;5016468;28;19926;-50
2021/10/23 11:21:32;;;;;;;;;;;20.80;56.40;;;;;;5015097;28;19937;-49
2021/10/23 11:23:59;;;;;;;;;;;20.80;56.30;;;;;;5015472;28;19926;-50
2021/10/23 11:26:26;;;;;;;;;;;20.80;56.30;;;;;;5014849;28;19929;-53
2021/10/23 11:28:53;;;;;;;;;;;20.80;56.30;;;;;;5015941;28;19925;-48
2021/10/23 11:31:23;;;;;;;;;;;20.80;56.30;;;;;;5016069;28;20459;-53
2021/10/23 11:33:54;;;;;;;;;;;20.80;56.90;;;;;;4999339;28;19933;-50
2021/10/23 11:36:21;;;;;;;;;;;20.80;56.30;;;;;;4999041;28;19964;-47
2021/10/23 11:38:49;;;;;;;;;;;20.80;56.30;;;;;;5015372;28;19929;-51
2021/10/23 11:41:27;;;;;;;;;;;20.80;56.30;;;;;;5016055;28;20301;-51
2021/10/23 11:44:08;;;;;;;;;;;20.80;56.30;;;;;;5014853;28;19925;-51
2021/10/23 11:46:36;;;;;;;;;;;20.80;56.30;;;;;;5015473;28;19975;-53
2021/10/23 11:49:03;;;;;;;;;;;20.80;56.30;;;;;;5015753;28;19952;-51
2021/10/23 11:51:30;;;;;;;;;;;20.80;56.20;;;;;;5016158;28;19926;-50
2021/10/23 11:54:01;;;;;;;;;;;20.80;56.20;;;;;;5014779;28;19925;-55
2021/10/23 11:56:28;;;;;;;;;;;20.80;56.20;;;;;;5015847;28;19926;-48
2021/10/23 11:58:55;;;;;;;;;;;20.80;56.10;;;;;;5045970;28;19929;-53
2021/10/23 12:01:25;;;;;;;;;;;20.90;56.10;;;;;;5001362;28;19930;-52
2021/10/23 12:03:57;;;;;;;;;;;20.80;56.00;;;;;;4999358;28;19986;-49
2021/10/23 12:06:25;;;;;;;;;;;20.90;56.00;;;;;;5012771;28;19925;-50
2021/10/23 12:08:56;;;;;;;;;;;20.90;56.10;;;;;;5015114;28;19984;-49
2021/10/23 12:11:26;;;;;;;;;;;20.90;56.00;;;;;;5029155;28;19926;-48
2021/10/23 12:14:03;;;;;;;;;;;20.90;55.90;;;;;;5003959;28;20294;-48
2021/10/23 12:16:40;;;;;;;;;;;20.90;56.00;;;;;;5007072;28;19925;-48
2021/10/23 12:19:21;;;;;;;;;;;20.90;56.00;;;;;;4999407;28;19972;-51
2021/10/23 12:21:48;;;;;;;;;;;20.90;55.90;;;;;;5013113;28;19925;-48
2021/10/23 12:24:18;;;;;;;;;;;20.90;55.90;;;;;;5014271;28;19926;-51
2021/10/23 12:27:02;;;;;;;;;;;20.90;55.90;;;;;;5003533;28;19926;-51
2021/10/23 12:29:49;;;;;;;;;;;20.90;55.90;;;;;;4998698;28;20369;-48
2021/10/23 12:32:17;;;;;;;;;;;20.90;55.90;;;;;;4999233;28;19926;-52
2021/10/23 12:34:51;;;;;;;;;;;20.90;55.90;;;;;;5013089;28;20340;-47
2021/10/23 12:37:27;;;;;;;;;;;20.90;55.90;;;;;;5015108;28;20378;-49
2021/10/23 12:40:21;;;;;;;;;;;20.90;55.90;;;;;;5013982;28;19975;-50
2021/10/23 12:42:48;;;;;;;;;;;20.90;55.90;;;;;;5011026;28;19925;-50
2021/10/23 12:45:18;;;;;;;;;;;20.90;55.90;;;;;;5014404;28;19976;-51
2021/10/23 12:47:45;;;;;;;;;;;20.90;55.90;;;;;;4999528;28;19929;-51
2021/10/23 12:50:12;;;;;;;;;;;20.90;55.90;;;;;;5012892;28;19929;-50
2021/10/23 12:52:41;;;;;;;;;;;20.90;55.80;;;;;;5014557;28;19953;-51
2021/10/23 12:55:09;;;;;;;;;;;21.00;55.90;;;;;;5001552;28;19980;-53
2021/10/23 12:57:36;;;;;;;;;;;21.00;55.90;;;;;;4998313;28;19929;-50
2021/10/23 13:00:03;;;;;;;;;;;20.90;55.90;;;;;;4998500;28;19926;-48
2021/10/23 13:02:30;;;;;;;;;;;20.90;55.90;;;;;;5008368;28;19926;-50
2021/10/23 13:04:57;;;;;;;;;;;20.90;56.00;;;;;;5013580;28;19960;-49
2021/10/23 13:07:24;;;;;;;;;;;20.90;56.00;;;;;;5006147;28;19980;-48
2021/10/23 13:09:51;;;;;;;;;;;20.90;56.00;;;;;;5005419;28;20348;-51
2021/10/23 13:12:18;;;;;;;;;;;20.80;56.00;;;;;;5007631;28;19926;-51
2021/10/23 13:14:45;;;;;;;;;;;20.80;56.10;;;;;;5003487;28;19983;-50
2021/10/23 13:17:12;;;;;;;;;;;20.80;56.10;;;;;;5010093;28;20436;-52
2021/10/23 13:19:39;;;;;;;;;;;20.80;56.10;;;;;;5001924;28;19925;-52
2021/10/23 13:22:07;;;;;;;;;;;20.80;56.10;;;;;;5014324;28;19933;-48
2021/10/23 13:24:34;;;;;;;;;;;20.80;56.20;;;;;;5014104;28;19930;-49
2021/10/23 13:27:01;;;;;;;;;;;20.80;56.30;;;;;;5013876;28;20400;-54
2021/10/23 13:29:28;;;;;;;;;;;20.80;56.30;;;;;;5013040;28;19961;-51
2021/10/23 13:31:56;;;;;;;;;;;20.80;56.30;;;;;;4997147;28;19925;-52
2021/10/23 13:34:23;;;;;;;;;;;20.80;56.30;;;;;;5013125;28;19929;-53
2021/10/23 13:36:50;;;;;;;;;;;20.80;56.30;;;;;;5012049;28;19933;-53
2021/10/23 13:39:17;;;;;;;;;;;20.70;56.20;;;;;;5012804;28;19975;-52
2021/10/23 13:41:44;;;;;;;;;;;20.70;56.10;;;;;;5012478;28;20354;-52
2021/10/23 13:44:11;;;;;;;;;;;20.80;56.20;;;;;;5012831;28;19925;-51
2021/10/23 13:46:38;;;;;;;;;;;20.80;56.20;;;;;;4998100;28;19934;-51
2021/10/23 13:49:07;;;;;;;;;;;20.80;56.20;;;;;;4997681;28;19980;-50
2021/10/23 13:51:34;;;;;;;;;;;20.70;56.10;;;;;;5009159;28;19925;-50
2021/10/23 13:54:02;;;;;;;;;;;20.80;56.30;;;;;;5013384;28;19980;-52
2021/10/23 13:56:29;;;;;;;;;;;20.80;56.30;;;;;;5013500;28;19933;-52
2021/10/23 13:58:56;;;;;;;;;;;20.80;56.30;;;;;;5013682;28;19976;-48
2021/10/23 14:01:24;;;;;;;;;;;20.80;56.30;;;;;;5004156;28;19981;-50
2021/10/23 14:03:51;;;;;;;;;;;20.80;56.30;;;;;;4997392;28;19940;-50
2021/10/23 14:06:18;;;;;;;;;;;20.80;56.30;;;;;;5004565;28;19926;-48
2021/10/23 14:08:45;;;;;;;;;;;20.80;56.30;;;;;;5006810;28;19976;-48
2021/10/23 14:11:12;;;;;;;;;;;20.80;56.30;;;;;;5002549;28;20279;-50
2021/10/23 14:13:39;;;;;;;;;;;20.80;56.30;;;;;;5013956;28;19933;-52
2021/10/23 14:16:06;;;;;;;;;;;20.80;56.40;;;;;;5009846;28;19926;-53
2021/10/23 14:18:33;;;;;;;;;;;20.70;56.30;;;;;;4999140;28;19925;-49
2021/10/23 14:21:01;;;;;;;;;;;20.70;56.30;;;;;;5011702;28;20629;-48
2021/10/23 14:23:28;;;;;;;;;;;20.70;56.30;;;;;;4996305;28;20385;-53
2021/10/23 14:25:55;;;;;;;;;;;20.70;56.40;;;;;;5011871;28;19929;-50
2021/10/23 14:28:39;;;;;;;;;;;20.70;56.40;;;;;;5013379;28;20394;-53